Time;durP1;ratioP1;P1;durP2;ratioP2;P2;SDS_P1;SDS_P2;PMS_P1;PMS_P2;Temp;Humidity;BMP_temperature;BMP_pressure;BME280_temperature;BME280_humidity;BME280_pressure;Samples;Min_cycle;Max_cycle;Signal;HPM_P1;HPM_P2
2021/09/16 00:02:05;;;;;;;4.32;1.65;;;;;;;;;;5018002;28;20025;-58
2021/09/16 00:04:31;;;;;;;1.80;0.95;;;;;;;;;;5016890;28;20033;-58
2021/09/16 00:06:57;;;;;;;1.10;1.00;;;;;;;;;;5028301;28;20045;-58
2021/09/16 00:09:23;;;;;;;1.35;0.98;;;;;;;;;;5021908;28;20030;-58
2021/09/16 00:11:48;;;;;;;3.65;1.30;;;;;;;;;;5014566;28;20036;-58
2021/09/16 00:14:14;;;;;;;2.90;1.15;;;;;;;;;;5021090;28;20029;-58
2021/09/16 00:16:39;;;;;;;3.05;1.00;;;;;;;;;;5018213;28;20132;-58
2021/09/16 00:19:05;;;;;;;1.67;1.08;;;;;;;;;;5017234;28;20034;-58
2021/09/16 00:21:30;;;;;;;0.88;0.73;;;;;;;;;;5019291;28;20272;-58
2021/09/16 00:23:56;;;;;;;1.17;0.90;;;;;;;;;;5020010;28;20029;-58
2021/09/16 00:26:21;;;;;;;2.63;1.10;;;;;;;;;;5017296;28;20037;-59
2021/09/16 00:28:46;;;;;;;3.10;1.20;;;;;;;;;;5021229;28;20417;-58
2021/09/16 00:31:12;;;;;;;3.10;1.20;;;;;;;;;;5014149;28;20087;-58
2021/09/16 00:33:38;;;;;;;4.47;1.00;;;;;;;;;;5016466;28;20403;-58
2021/09/16 00:36:03;;;;;;;3.38;1.17;;;;;;;;;;5015599;28;20530;-58
2021/09/16 00:38:29;;;;;;;1.58;1.00;;;;;;;;;;5017655;28;20121;-58
2021/09/16 00:40:54;;;;;;;3.13;1.13;;;;;;;;;;5019711;28;20033;-58
2021/09/16 00:43:20;;;;;;;2.08;0.90;;;;;;;;;;5018307;28;20099;-58
2021/09/16 00:45:46;;;;;;;2.10;0.90;;;;;;;;;;5025030;28;20084;-58
2021/09/16 00:48:11;;;;;;;1.65;1.10;;;;;;;;;;5017402;28;20042;-58
2021/09/16 00:50:37;;;;;;;1.73;0.90;;;;;;;;;;5019195;28;20030;-58
2021/09/16 00:53:03;;;;;;;3.63;1.38;;;;;;;;;;5022604;28;20498;-58
2021/09/16 00:55:29;;;;;;;1.98;0.90;;;;;;;;;;5024995;28;20075;-58
2021/09/16 00:57:59;;;;;;;2.05;1.20;;;;;;;;;;5020053;28;20029;-58
2021/09/16 01:00:24;;;;;;;2.33;1.10;;;;;;;;;;5024609;28;20064;-58
2021/09/16 01:02:50;;;;;;;1.98;1.25;;;;;;;;;;5026348;28;20532;-58
2021/09/16 01:05:15;;;;;;;3.25;1.10;;;;;;;;;;5017564;28;20501;-58
2021/09/16 01:07:41;;;;;;;4.32;1.13;;;;;;;;;;5018741;28;20393;-59
2021/09/16 01:10:08;;;;;;;2.78;1.10;;;;;;;;;;5028442;28;20129;-58
2021/09/16 01:12:35;;;;;;;2.47;1.17;;;;;;;;;;5020791;28;20026;-58
2021/09/16 01:15:01;;;;;;;2.75;1.05;;;;;;;;;;5016617;28;20030;-58
2021/09/16 01:17:26;;;;;;;3.33;1.40;;;;;;;;;;5027375;28;20464;-58
2021/09/16 01:19:52;;;;;;;3.05;1.20;;;;;;;;;;5019823;28;20022;-58
2021/09/16 01:22:22;;;;;;;3.10;1.27;;;;;;;;;;5019813;28;20468;-58
2021/09/16 01:24:48;;;;;;;2.40;1.15;;;;;;;;;;5018936;28;20017;-58
2021/09/16 01:27:14;;;;;;;3.35;1.10;;;;;;;;;;5017919;28;20032;-58
2021/09/16 01:29:39;;;;;;;2.75;1.40;;;;;;;;;;5021740;28;20547;-58
2021/09/16 01:32:06;;;;;;;3.97;1.20;;;;;;;;;;5019916;28;20564;-58
2021/09/16 01:34:32;;;;;;;3.05;1.20;;;;;;;;;;5019553;28;20025;-58
2021/09/16 01:36:58;;;;;;;3.08;1.45;;;;;;;;;;5018346;28;20561;-58
2021/09/16 01:39:25;;;;;;;4.22;1.20;;;;;;;;;;5025699;28;20025;-58
2021/09/16 01:41:50;;;;;;;2.33;1.05;;;;;;;;;;5027213;28;20025;-58
2021/09/16 01:44:16;;;;;;;3.13;1.30;;;;;;;;;;5019673;28;20040;-59
2021/09/16 01:46:41;;;;;;;2.30;1.10;;;;;;;;;;5020376;28;20034;-58
2021/09/16 01:49:07;;;;;;;3.83;1.35;;;;;;;;;;5026520;28;20027;-58
2021/09/16 01:51:34;;;;;;;4.20;1.15;;;;;;;;;;5019849;28;20036;-58
2021/09/16 01:54:00;;;;;;;1.80;1.10;;;;;;;;;;5021320;28;20060;-58
2021/09/16 01:56:26;;;;;;;5.20;1.55;;;;;;;;;;5027911;28;20499;-58
2021/09/16 01:58:52;;;;;;;2.03;1.50;;;;;;;;;;5029216;28;20096;-58
2021/09/16 02:01:17;;;;;;;6.10;1.40;;;;;;;;;;5018257;28;20029;-58
2021/09/16 02:03:43;;;;;;;3.90;1.38;;;;;;;;;;5015995;28;20603;-58
2021/09/16 02:06:08;;;;;;;3.72;1.60;;;;;;;;;;5023705;28;20041;-58
2021/09/16 02:08:33;;;;;;;3.00;1.45;;;;;;;;;;5023013;28;20646;-58
2021/09/16 02:10:59;;;;;;;5.75;2.05;;;;;;;;;;5024985;28;20059;-58
2021/09/16 02:13:25;;;;;;;3.63;1.80;;;;;;;;;;5028187;28;20029;-58
2021/09/16 02:15:51;;;;;;;5.00;1.90;;;;;;;;;;5020462;28;20033;-58
2021/09/16 02:18:16;;;;;;;4.88;1.70;;;;;;;;;;5015360;28;20021;-58
2021/09/16 02:20:42;;;;;;;3.70;1.90;;;;;;;;;;5026702;28;20166;-58
2021/09/16 02:23:07;;;;;;;2.55;1.90;;;;;;;;;;5013938;28;20377;-58
2021/09/16 02:25:32;;;;;;;5.70;1.88;;;;;;;;;;5018790;28;20033;-58
2021/09/16 02:27:58;;;;;;;5.95;2.78;;;;;;;;;;5023619;28;20036;-58
2021/09/16 02:30:23;;;;;;;2.55;1.85;;;;;;;;;;5022815;28;20340;-58
2021/09/16 02:32:49;;;;;;;4.75;1.85;;;;;;;;;;5016600;28;20514;-58
2021/09/16 02:35:14;;;;;;;2.65;1.75;;;;;;;;;;5014854;28;20510;-58
2021/09/16 02:37:40;;;;;;;3.35;1.50;;;;;;;;;;5017085;28;20044;-58
2021/09/16 02:40:07;;;;;;;2.63;1.70;;;;;;;;;;5016070;28;20028;-58
2021/09/16 02:42:33;;;;;;;5.78;2.08;;;;;;;;;;5018803;28;20117;-58
2021/09/16 02:44:58;;;;;;;3.30;1.52;;;;;;;;;;5016597;28;20112;-58
2021/09/16 02:47:24;;;;;;;3.88;1.48;;;;;;;;;;5017080;28;20022;-58
2021/09/16 02:49:49;;;;;;;3.22;1.50;;;;;;;;;;5016707;28;20034;-58
2021/09/16 02:52:14;;;;;;;2.35;1.50;;;;;;;;;;5018392;28;20030;-58
2021/09/16 02:54:40;;;;;;;2.38;1.42;;;;;;;;;;5021352;28;20055;-58
2021/09/16 02:57:06;;;;;;;5.10;1.40;;;;;;;;;;5022674;28;20052;-58
2021/09/16 02:59:32;;;;;;;3.47;1.20;;;;;;;;;;5020341;28;21070;-58
2021/09/16 03:01:57;;;;;;;2.00;1.50;;;;;;;;;;5023038;28;20045;-58
2021/09/16 03:04:22;;;;;;;3.15;1.30;;;;;;;;;;5023028;28;20088;-58
2021/09/16 03:06:48;;;;;;;2.63;1.40;;;;;;;;;;5014120;28;20045;-58
2021/09/16 03:09:13;;;;;;;7.40;1.83;;;;;;;;;;5017320;28;20079;-58
2021/09/16 03:11:39;;;;;;;6.70;2.15;;;;;;;;;;5017863;28;20575;-58
2021/09/16 03:14:05;;;;;;;6.90;2.65;;;;;;;;;;5019981;28;20022;-58
2021/09/16 03:16:30;;;;;;;5.03;1.67;;;;;;;;;;5019885;28;20480;-58
2021/09/16 03:18:56;;;;;;;5.80;1.50;;;;;;;;;;5022071;28;20033;-58
2021/09/16 03:21:21;;;;;;;5.97;1.70;;;;;;;;;;5019143;28;20260;-58
2021/09/16 03:23:46;;;;;;;1.92;1.15;;;;;;;;;;5018954;28;20110;-59
2021/09/16 03:26:12;;;;;;;3.55;1.60;;;;;;;;;;5017600;28;20103;-58
2021/09/16 03:28:39;;;;;;;3.50;1.45;;;;;;;;;;5015812;28;20049;-58
2021/09/16 03:31:06;;;;;;;3.50;1.90;;;;;;;;;;5015540;28;20060;-58
2021/09/16 03:33:32;;;;;;;5.03;1.90;;;;;;;;;;5018506;28;20115;-58
2021/09/16 03:35:58;;;;;;;2.97;2.08;;;;;;;;;;5015751;28;20029;-58
2021/09/16 03:38:23;;;;;;;3.67;2.53;;;;;;;;;;5015548;28;20507;-58
2021/09/16 03:40:49;;;;;;;3.92;2.38;;;;;;;;;;5016340;28;20017;-58
2021/09/16 03:43:14;;;;;;;5.70;2.10;;;;;;;;;;5017966;28;20517;-57
2021/09/16 03:45:39;;;;;;;3.38;1.70;;;;;;;;;;5014768;28;20315;-57
2021/09/16 03:48:05;;;;;;;7.53;2.45;;;;;;;;;;5020203;28;20534;-57
2021/09/16 03:50:30;;;;;;;5.68;2.00;;;;;;;;;;5017142;28;20022;-57
2021/09/16 03:52:56;;;;;;;2.97;1.80;;;;;;;;;;5017964;28;20475;-57
2021/09/16 03:55:22;;;;;;;2.97;1.75;;;;;;;;;;5016766;28;20031;-57
2021/09/16 03:57:48;;;;;;;6.35;2.00;;;;;;;;;;5019105;28;20025;-56
2021/09/16 04:00:13;;;;;;;6.43;2.00;;;;;;;;;;5013915;28;20064;-56
2021/09/16 04:02:39;;;;;;;5.07;2.00;;;;;;;;;;5014432;28;20065;-56
2021/09/16 04:05:05;;;;;;;3.60;1.88;;;;;;;;;;5021979;28;20026;-57
2021/09/16 04:07:30;;;;;;;6.28;2.53;;;;;;;;;;5018748;28;20025;-57
2021/09/16 04:09:56;;;;;;;6.10;2.35;;;;;;;;;;5016395;28;20052;-57
2021/09/16 04:12:21;;;;;;;4.20;2.15;;;;;;;;;;5022993;28;20456;-57
2021/09/16 04:14:47;;;;;;;3.95;2.15;;;;;;;;;;5015840;28;20025;-57
2021/09/16 04:17:12;;;;;;;8.98;2.53;;;;;;;;;;5013993;28;20030;-57
2021/09/16 04:19:37;;;;;;;6.43;2.40;;;;;;;;;;5022692;28;20029;-58
2021/09/16 04:22:03;;;;;;;6.57;2.80;;;;;;;;;;5016581;28;20404;-58
2021/09/16 04:24:29;;;;;;;5.53;2.20;;;;;;;;;;5016805;28;20483;-58
2021/09/16 04:26:54;;;;;;;7.53;2.40;;;;;;;;;;5015441;28;20071;-58
2021/09/16 04:29:20;;;;;;;3.65;1.83;;;;;;;;;;5021137;28;20041;-58
2021/09/16 04:31:45;;;;;;;4.43;2.00;;;;;;;;;;5015076;28;20060;-58
2021/09/16 04:34:10;;;;;;;3.15;2.17;;;;;;;;;;5021251;28;20695;-58
2021/09/16 04:36:36;;;;;;;3.22;1.90;;;;;;;;;;5028134;28;20083;-58
2021/09/16 04:39:05;;;;;;;4.35;2.20;;;;;;;;;;5019748;28;20022;-58
2021/09/16 04:41:31;;;;;;;5.13;2.30;;;;;;;;;;5020568;28;20038;-58
2021/09/16 04:43:58;;;;;;;3.75;2.00;;;;;;;;;;5017482;28;20508;-58
2021/09/16 04:46:23;;;;;;;7.75;4.07;;;;;;;;;;5015610;28;20049;-58
2021/09/16 04:48:49;;;;;;;9.00;4.55;;;;;;;;;;5018050;28;20476;-58
2021/09/16 04:51:14;;;;;;;11.70;5.05;;;;;;;;;;5023473;28;20534;-58
2021/09/16 04:53:40;;;;;;;6.32;3.17;;;;;;;;;;5021993;28;20136;-58
2021/09/16 04:56:05;;;;;;;6.60;2.90;;;;;;;;;;5023127;28;20079;-58
2021/09/16 04:58:31;;;;;;;5.97;2.72;;;;;;;;;;5023424;28;20025;-58
2021/09/16 05:00:56;;;;;;;5.00;2.50;;;;;;;;;;5018502;28;20029;-57
2021/09/16 05:03:22;;;;;;;4.07;2.00;;;;;;;;;;5014484;28;20045;-58
2021/09/16 05:05:47;;;;;;;5.13;2.30;;;;;;;;;;5015916;28;20521;-57
2021/09/16 05:08:14;;;;;;;3.92;2.70;;;;;;;;;;5024138;28;20029;-56
2021/09/16 05:10:39;;;;;;;4.10;2.70;;;;;;;;;;5024392;28;20026;-56
2021/09/16 05:13:05;;;;;;;5.80;2.53;;;;;;;;;;5019694;28;20028;-56
2021/09/16 05:15:30;;;;;;;5.22;2.97;;;;;;;;;;5026221;28;20013;-55
2021/09/16 05:17:55;;;;;;;6.85;2.80;;;;;;;;;;5021048;28;20342;-56
2021/09/16 05:20:21;;;;;;;6.03;2.80;;;;;;;;;;5019947;28;20033;-56
2021/09/16 05:22:46;;;;;;;6.25;2.30;;;;;;;;;;5023212;28;20103;-57
2021/09/16 05:25:12;;;;;;;4.65;1.98;;;;;;;;;;5027022;28;20030;-57
2021/09/16 05:27:37;;;;;;;3.33;1.80;;;;;;;;;;5020107;28;20075;-58
2021/09/16 05:30:04;;;;;;;4.43;1.80;;;;;;;;;;5021230;28;20025;-58
2021/09/16 05:32:29;;;;;;;3.63;2.00;;;;;;;;;;5025188;28;20031;-58
2021/09/16 05:34:55;;;;;;;3.47;2.10;;;;;;;;;;5015354;28;20025;-58
2021/09/16 05:37:21;;;;;;;8.85;2.17;;;;;;;;;;5020562;28;20515;-58
2021/09/16 05:39:47;;;;;;;2.63;1.88;;;;;;;;;;5019685;28;20068;-58
2021/09/16 05:42:12;;;;;;;6.63;2.03;;;;;;;;;;5018888;28;20111;-58
2021/09/16 05:44:38;;;;;;;5.82;2.65;;;;;;;;;;5012950;28;20029;-57
2021/09/16 05:47:04;;;;;;;3.55;2.22;;;;;;;;;;5026555;28;20029;-57
2021/09/16 05:49:29;;;;;;;6.22;2.25;;;;;;;;;;5015256;28;20392;-58
2021/09/16 05:51:55;;;;;;;6.45;2.30;;;;;;;;;;5023895;28;20119;-58
2021/09/16 05:54:21;;;;;;;4.32;2.00;;;;;;;;;;5014795;28;20072;-58
2021/09/16 05:56:47;;;;;;;4.10;2.03;;;;;;;;;;5023889;28;20021;-57
2021/09/16 05:59:14;;;;;;;3.50;2.00;;;;;;;;;;5023112;28;20037;-57
2021/09/16 06:01:39;;;;;;;7.10;2.47;;;;;;;;;;5021963;28;20109;-57
2021/09/16 06:04:05;;;;;;;9.25;4.20;;;;;;;;;;5022196;28;20133;-57
2021/09/16 06:06:30;;;;;;;7.00;2.70;;;;;;;;;;5022711;28;20043;-57
2021/09/16 06:08:56;;;;;;;6.88;2.20;;;;;;;;;;5018333;28;20029;-57
2021/09/16 06:11:21;;;;;;;4.50;2.20;;;;;;;;;;5021440;28;20053;-57
2021/09/16 06:13:46;;;;;;;7.43;2.60;;;;;;;;;;5022123;28;20023;-57
2021/09/16 06:16:12;;;;;;;9.43;3.42;;;;;;;;;;5016960;28;20028;-57
2021/09/16 06:18:37;;;;;;;6.18;3.70;;;;;;;;;;5022849;28;20025;-57
2021/09/16 06:21:03;;;;;;;9.38;3.72;;;;;;;;;;5017871;28;20032;-57
2021/09/16 06:23:28;;;;;;;11.57;4.45;;;;;;;;;;5013651;28;20440;-57
2021/09/16 06:25:54;;;;;;;7.50;3.20;;;;;;;;;;5019444;28;20025;-57
2021/09/16 06:28:19;;;;;;;7.35;3.83;;;;;;;;;;5018259;28;20033;-58
2021/09/16 06:30:44;;;;;;;7.00;3.28;;;;;;;;;;5017978;28;20033;-58
2021/09/16 06:33:13;;;;;;;4.25;2.45;;;;;;;;;;5016221;28;20109;-58
2021/09/16 06:35:39;;;;;;;13.93;3.17;;;;;;;;;;5020543;28;20101;-58
2021/09/16 06:38:05;;;;;;;6.28;2.65;;;;;;;;;;5020958;28;20021;-57
2021/09/16 06:40:30;;;;;;;8.95;4.53;;;;;;;;;;5013792;28;20034;-57
2021/09/16 06:42:56;;;;;;;6.88;2.63;;;;;;;;;;5021726;28;20026;-57
2021/09/16 06:45:21;;;;;;;6.90;2.70;;;;;;;;;;5018974;28;20029;-58
2021/09/16 06:47:47;;;;;;;7.68;3.88;;;;;;;;;;5014417;28;20017;-58
2021/09/16 06:50:12;;;;;;;6.10;3.35;;;;;;;;;;5019376;28;20549;-58
2021/09/16 06:52:38;;;;;;;5.13;2.97;;;;;;;;;;5029290;28;20044;-58
2021/09/16 06:55:04;;;;;;;5.68;3.17;;;;;;;;;;5018575;28;20112;-58
2021/09/16 06:57:29;;;;;;;9.05;3.42;;;;;;;;;;5022005;28;20104;-58
2021/09/16 06:59:55;;;;;;;7.75;3.53;;;;;;;;;;5017552;28;20199;-58
2021/09/16 07:02:20;;;;;;;5.50;3.33;;;;;;;;;;5018934;28;20076;-57
2021/09/16 07:04:46;;;;;;;6.85;3.05;;;;;;;;;;5015097;28;20693;-58
2021/09/16 07:07:11;;;;;;;7.95;3.00;;;;;;;;;;5022852;28;20059;-57
2021/09/16 07:09:37;;;;;;;5.35;2.55;;;;;;;;;;5015252;28;20034;-57
2021/09/16 07:12:03;;;;;;;7.00;2.80;;;;;;;;;;5018320;28;20018;-57
2021/09/16 07:14:30;;;;;;;6.97;2.90;;;;;;;;;;5015813;28;20105;-57
2021/09/16 07:16:59;;;;;;;6.53;3.15;;;;;;;;;;5019046;28;20219;-57
2021/09/16 07:19:25;;;;;;;5.53;2.90;;;;;;;;;;5012891;28;20049;-57
2021/09/16 07:21:52;;;;;;;6.45;2.85;;;;;;;;;;5018355;28;20029;-56
2021/09/16 07:24:17;;;;;;;4.88;2.72;;;;;;;;;;5016846;28;20507;-57
2021/09/16 07:26:49;;;;;;;7.60;3.08;;;;;;;;;;5017344;28;20026;-57
2021/09/16 07:29:15;;;;;;;5.65;2.58;;;;;;;;;;5016077;28;20039;-57
2021/09/16 07:31:41;;;;;;;8.80;3.08;;;;;;;;;;5019753;28;20034;-57
2021/09/16 07:34:06;;;;;;;5.95;2.83;;;;;;;;;;5017465;28;20059;-57
2021/09/16 07:36:31;;;;;;;5.82;2.90;;;;;;;;;;5017860;28;20025;-57
2021/09/16 07:38:57;;;;;;;8.38;3.13;;;;;;;;;;5021370;28;20102;-57
2021/09/16 07:41:22;;;;;;;6.32;3.10;;;;;;;;;;5020591;28;20162;-57
2021/09/16 07:43:48;;;;;;;5.05;2.80;;;;;;;;;;5016294;28;20389;-56
2021/09/16 07:46:13;;;;;;;5.55;2.97;;;;;;;;;;5018950;28;20492;-56
2021/09/16 07:48:38;;;;;;;8.93;2.97;;;;;;;;;;5019636;28;20029;-56
2021/09/16 07:51:04;;;;;;;7.35;3.13;;;;;;;;;;5028216;28;20041;-57
2021/09/16 07:53:32;;;;;;;6.75;3.30;;;;;;;;;;5018557;28;20108;-56
2021/09/16 07:55:58;;;;;;;6.88;3.20;;;;;;;;;;5016552;28;20029;-57
2021/09/16 07:58:24;;;;;;;6.10;3.60;;;;;;;;;;5022423;28;20487;-56
2021/09/16 08:00:51;;;;;;;8.23;3.28;;;;;;;;;;5020144;28;20057;-56
2021/09/16 08:03:18;;;;;;;6.18;3.33;;;;;;;;;;5016058;28;20052;-56
2021/09/16 08:05:44;;;;;;;4.45;3.17;;;;;;;;;;5018449;28;20030;-56
2021/09/16 08:08:09;;;;;;;7.88;3.58;;;;;;;;;;5022431;28;20022;-56
2021/09/16 08:10:35;;;;;;;4.78;2.80;;;;;;;;;;5018937;28;20103;-56
2021/09/16 08:13:01;;;;;;;10.10;3.65;;;;;;;;;;5021045;28;20566;-57
2021/09/16 08:15:27;;;;;;;9.05;4.15;;;;;;;;;;5019152;28;20026;-57
2021/09/16 08:17:52;;;;;;;9.20;3.40;;;;;;;;;;5015126;28;20495;-57
2021/09/16 08:20:17;;;;;;;6.30;3.25;;;;;;;;;;5018069;28;20025;-58
2021/09/16 08:22:44;;;;;;;7.35;3.25;;;;;;;;;;5017977;28;20717;-57
2021/09/16 08:25:11;;;;;;;8.48;3.20;;;;;;;;;;5016813;28;20085;-57
2021/09/16 08:27:36;;;;;;;8.88;3.50;;;;;;;;;;5017630;28;20038;-57
2021/09/16 08:30:04;;;;;;;4.88;3.13;;;;;;;;;;5021613;28;20036;-57
2021/09/16 08:32:30;;;;;;;8.18;3.10;;;;;;;;;;5020704;28;20051;-57
2021/09/16 08:34:55;;;;;;;5.45;3.08;;;;;;;;;;5013165;28;20488;-57
2021/09/16 08:37:20;;;;;;;5.53;3.30;;;;;;;;;;5015038;28;20071;-58
2021/09/16 08:39:46;;;;;;;7.75;3.30;;;;;;;;;;5024704;28;20021;-57
2021/09/16 08:42:13;;;;;;;8.27;3.75;;;;;;;;;;5021121;28;20021;-57
2021/09/16 08:44:42;;;;;;;8.05;3.85;;;;;;;;;;5020357;28;20033;-57
2021/09/16 08:47:07;;;;;;;8.02;3.50;;;;;;;;;;5015218;28;20026;-57
2021/09/16 08:49:33;;;;;;;7.00;3.50;;;;;;;;;;5017121;28;20048;-57
2021/09/16 08:51:59;;;;;;;7.25;3.65;;;;;;;;;;5013688;28;20125;-57
2021/09/16 08:54:27;;;;;;;13.38;4.45;;;;;;;;;;5017022;28;20416;-57
2021/09/16 08:56:53;;;;;;;7.25;3.53;;;;;;;;;;5015115;28;20484;-57
2021/09/16 08:59:19;;;;;;;9.52;3.75;;;;;;;;;;5017075;28;20034;-57
2021/09/16 09:01:46;;;;;;;10.57;4.03;;;;;;;;;;5019329;28;20083;-57
2021/09/16 09:04:12;;;;;;;8.73;4.10;;;;;;;;;;5009774;28;20044;-58
2021/09/16 09:06:39;;;;;;;7.35;3.97;;;;;;;;;;5015230;28;20495;-57
2021/09/16 09:09:06;;;;;;;14.63;5.72;;;;;;;;;;5025235;28;20113;-56
2021/09/16 09:11:31;;;;;;;10.73;4.47;;;;;;;;;;5024962;28;20425;-57
2021/09/16 09:13:57;;;;;;;9.98;5.10;;;;;;;;;;5016430;28;20108;-57
2021/09/16 09:16:33;;;;;;;13.40;5.32;;;;;;;;;;5019571;28;20120;-56
2021/09/16 09:18:59;;;;;;;12.02;5.00;;;;;;;;;;5017103;28;20094;-59
2021/09/16 09:21:35;;;;;;;8.18;5.25;;;;;;;;;;5026867;28;20503;-58
2021/09/16 09:24:01;;;;;;;10.32;4.70;;;;;;;;;;5018369;28;20104;-58
2021/09/16 09:26:33;;;;;;;5.05;2.97;;;;;;;;;;5022515;28;20029;-58
2021/09/16 09:29:08;;;;;;;5.97;3.50;;;;;;;;;;5027825;28;20026;-58
2021/09/16 09:31:36;;;;;;;4.88;1.67;;;;;;;;;;5018188;28;20463;-58
2021/09/16 09:34:24;;;;;;;2.22;2.03;;;;;;;;;;5019983;28;20193;-58
2021/09/16 09:36:51;;;;;;;3.93;1.60;;;;;;;;;;5023069;28;20025;-58
2021/09/16 09:39:25;;;;;;;2.67;1.77;;;;;;;;;;5028690;28;20030;-58
2021/09/16 09:41:50;;;;;;;2.67;1.60;;;;;;;;;;5023460;28;20029;-58
2021/09/16 09:44:16;;;;;;;4.82;1.50;;;;;;;;;;5019144;28;20418;-59
2021/09/16 09:46:45;;;;;;;5.32;1.65;;;;;;;;;;5024374;28;20039;-58
2021/09/16 09:49:14;;;;;;;1.33;1.23;;;;;;;;;;5024980;28;20028;-58
2021/09/16 09:51:51;;;;;;;2.97;1.63;;;;;;;;;;5021705;28;20057;-59
2021/09/16 09:54:19;;;;;;;3.30;1.48;;;;;;;;;;5020145;28;20026;-59
2021/09/16 09:57:04;;;;;;;2.58;1.50;;;;;;;;;;5026713;28;20057;-58
2021/09/16 09:59:49;;;;;;;1.55;1.45;;;;;;;;;;5024214;28;20372;-59
2021/09/16 10:02:15;;;;;;;1.35;1.25;;;;;;;;;;5020880;28;20068;-59
2021/09/16 10:04:42;;;;;;;1.30;1.20;;;;;;;;;;5027372;28;20736;-59
2021/09/16 10:07:08;;;;;;;1.48;1.15;;;;;;;;;;5021854;28;20028;-58
2021/09/16 10:09:33;;;;;;;2.35;1.17;;;;;;;;;;5014852;28;20029;-58
2021/09/16 10:11:59;;;;;;;2.95;1.10;;;;;;;;;;5023875;28;20033;-58
2021/09/16 10:14:25;;;;;;;2.35;1.40;;;;;;;;;;5014856;28;20047;-59
2021/09/16 10:16:50;;;;;;;2.63;1.67;;;;;;;;;;5019162;28;20038;-58
2021/09/16 10:19:16;;;;;;;4.50;1.85;;;;;;;;;;5016425;28;20087;-58
2021/09/16 10:21:42;;;;;;;1.92;1.73;;;;;;;;;;5017669;28;20064;-58
2021/09/16 10:24:13;;;;;;;5.13;3.15;;;;;;;;;;5016076;28;20419;-58
2021/09/16 10:26:45;;;;;;;5.43;3.83;;;;;;;;;;5015400;28;20032;-58
2021/09/16 10:29:28;;;;;;;4.43;3.85;;;;;;;;;;5015740;28;20109;-58
2021/09/16 10:32:06;;;;;;;5.45;4.00;;;;;;;;;;5021012;28;20033;-58
2021/09/16 10:34:44;;;;;;;5.25;4.28;;;;;;;;;;5016278;28;20372;-57
2021/09/16 10:37:18;;;;;;;8.07;5.43;;;;;;;;;;5020990;28;20029;-57
2021/09/16 10:39:46;;;;;;;4.80;4.20;;;;;;;;;;5020721;28;20786;-57
2021/09/16 10:42:12;;;;;;;6.70;4.30;;;;;;;;;;5018908;28;20061;-57
2021/09/16 10:44:38;;;;;;;6.15;4.80;;;;;;;;;;5015311;28;20045;-57
2021/09/16 10:47:21;;;;;;;6.20;4.78;;;;;;;;;;5019306;28;20029;-57
2021/09/16 10:49:49;;;;;;;9.80;6.35;;;;;;;;;;5017046;28;20377;-58
2021/09/16 10:52:14;;;;;;;10.02;6.75;;;;;;;;;;5013051;28;20026;-57
2021/09/16 10:54:48;;;;;;;11.80;7.40;;;;;;;;;;5015770;28;20148;-58
2021/09/16 10:57:15;;;;;;;10.65;6.70;;;;;;;;;;5021299;28;20025;-57
2021/09/16 10:59:52;;;;;;;12.27;7.97;;;;;;;;;;5021996;28;20407;-58
2021/09/16 11:02:26;;;;;;;11.32;7.30;;;;;;;;;;5019880;28;20428;-58
2021/09/16 11:04:55;;;;;;;14.55;8.32;;;;;;;;;;5014681;28;20131;-57
2021/09/16 11:07:32;;;;;;;11.20;7.35;;;;;;;;;;5019549;28;20171;-58
2021/09/16 11:10:13;;;;;;;11.93;8.02;;;;;;;;;;5018857;28;20017;-57
2021/09/16 11:12:39;;;;;;;10.32;7.10;;;;;;;;;;5017144;28;20103;-58
2021/09/16 11:15:05;;;;;;;11.20;7.93;;;;;;;;;;5014734;28;20037;-58
2021/09/16 11:17:31;;;;;;;11.68;7.75;;;;;;;;;;5019080;28;20037;-58
2021/09/16 11:19:56;;;;;;;11.77;8.00;;;;;;;;;;5017904;28;20037;-58
2021/09/16 11:22:22;;;;;;;12.43;7.63;;;;;;;;;;5014348;28;20453;-58
2021/09/16 11:24:48;;;;;;;11.95;7.85;;;;;;;;;;5019371;28;20033;-58
2021/09/16 11:27:27;;;;;;;13.27;7.68;;;;;;;;;;5021415;28;20032;-58
2021/09/16 11:29:53;;;;;;;11.55;7.60;;;;;;;;;;5015689;28;20026;-58
2021/09/16 11:32:19;;;;;;;16.27;9.75;;;;;;;;;;5017192;28;20037;-58
2021/09/16 11:35:02;;;;;;;19.58;10.75;;;;;;;;;;5021351;28;20452;-57
2021/09/16 11:37:32;;;;;;;22.60;11.07;;;;;;;;;;5016856;28;20021;-57
2021/09/16 11:39:59;;;;;;;16.00;9.52;;;;;;;;;;5018468;28;20516;-57
2021/09/16 11:42:25;;;;;;;102.25;61.20;;;;;;;;;;5012508;28;20057;-57
2021/09/16 11:44:57;;;;;;;56.35;32.83;;;;;;;;;;5012976;28;20056;-57
2021/09/16 11:47:24;;;;;;;37.83;22.67;;;;;;;;;;5017285;28;20104;-58
2021/09/16 11:49:50;;;;;;;33.35;19.70;;;;;;;;;;5020658;28;20446;-57
2021/09/16 11:52:20;;;;;;;20.70;10.98;;;;;;;;;;5019337;28;20075;-58
2021/09/16 11:55:07;;;;;;;24.13;11.93;;;;;;;;;;5013451;28;20026;-57
2021/09/16 11:58:12;;;;;;;65.82;31.95;;;;;;;;;;5016902;28;20037;-57
2021/09/16 12:00:50;;;;;;;84.03;41.25;;;;;;;;;;5021967;28;20124;-57
2021/09/16 12:03:25;;;;;;;28.85;15.20;;;;;;;;;;5014745;28;20503;-57
2021/09/16 12:06:05;;;;;;;24.55;12.52;;;;;;;;;;5024977;28;20112;-57
2021/09/16 12:08:37;;;;;;;25.35;12.70;;;;;;;;;;5017502;28;20033;-57
2021/09/16 12:11:05;;;;;;;50.92;25.58;;;;;;;;;;5021574;28;20104;-57
2021/09/16 12:13:42;;;;;;;50.45;29.27;;;;;;;;;;5019665;28;20028;-57
2021/09/16 12:16:15;;;;;;;38.45;22.77;;;;;;;;;;5017553;28;20021;-57
2021/09/16 12:18:46;;;;;;;69.13;41.72;;;;;;;;;;5016725;28;20017;-57
2021/09/16 12:21:19;;;;;;;58.58;35.90;;;;;;;;;;5018079;28;20033;-57
2021/09/16 12:23:50;;;;;;;168.25;78.25;;;;;;;;;;5016462;28;20056;-57
2021/09/16 12:26:19;;;;;;;124.32;60.42;;;;;;;;;;5019337;28;20026;-57
2021/09/16 12:29:04;;;;;;;64.28;35.00;;;;;;;;;;5019203;28;20472;-57
2021/09/16 12:31:39;;;;;;;38.17;17.80;;;;;;;;;;5021281;28;20357;-57
2021/09/16 12:34:09;;;;;;;34.17;16.70;;;;;;;;;;5012705;28;20030;-57
2021/09/16 12:36:36;;;;;;;41.53;18.70;;;;;;;;;;5023487;28;20033;-57
2021/09/16 12:39:13;;;;;;;49.22;22.75;;;;;;;;;;5016094;28;20033;-57
2021/09/16 12:41:51;;;;;;;55.83;27.90;;;;;;;;;;5017540;28;20025;-57
2021/09/16 12:44:19;;;;;;;33.47;17.52;;;;;;;;;;5018821;28;20075;-57
2021/09/16 12:46:50;;;;;;;36.60;16.25;;;;;;;;;;5018065;28;20488;-57
2021/09/16 12:49:29;;;;;;;41.70;18.50;;;;;;;;;;5021938;28;20353;-57
2021/09/16 12:51:55;;;;;;;43.35;18.50;;;;;;;;;;5021163;28;20024;-58
2021/09/16 12:54:21;;;;;;;34.65;15.50;;;;;;;;;;5022644;28;20746;-58
2021/09/16 12:56:48;;;;;;;38.50;16.90;;;;;;;;;;5021645;28;20342;-58
2021/09/16 12:59:24;;;;;;;39.20;17.80;;;;;;;;;;5029204;28;20029;-58
2021/09/16 13:02:05;;;;;;;40.60;17.25;;;;;;;;;;5022597;28;20164;-57
2021/09/16 13:04:53;;;;;;;44.58;18.23;;;;;;;;;;5016095;28;20052;-58
2021/09/16 13:07:22;;;;;;;41.22;17.92;;;;;;;;;;5024920;28;20098;-58
2021/09/16 13:09:47;;;;;;;45.78;19.02;;;;;;;;;;5030464;28;20082;-56
2021/09/16 13:12:14;;;;;;;37.65;16.60;;;;;;;;;;5022303;28;20021;-57
2021/09/16 13:14:40;;;;;;;43.30;18.48;;;;;;;;;;5018109;28;20030;-57
2021/09/16 13:17:06;;;;;;;41.05;17.63;;;;;;;;;;5024619;28;20025;-56
2021/09/16 13:19:31;;;;;;;43.30;18.98;;;;;;;;;;5022550;28;20060;-57
2021/09/16 13:21:57;;;;;;;41.13;17.45;;;;;;;;;;5017397;28;20021;-57
2021/09/16 13:24:22;;;;;;;48.30;21.27;;;;;;;;;;5023737;28;20025;-56
2021/09/16 13:26:47;;;;;;;43.15;20.42;;;;;;;;;;5019692;28;20033;-57
2021/09/16 13:29:13;;;;;;;56.45;29.27;;;;;;;;;;5020997;28;20113;-57
2021/09/16 13:31:38;;;;;;;109.10;57.85;;;;;;;;;;5023262;28;20391;-57
2021/09/16 13:34:04;;;;;;;98.88;56.22;;;;;;;;;;5026341;28;20036;-57
2021/09/16 13:36:29;;;;;;;56.22;30.13;;;;;;;;;;5017292;28;20064;-57
2021/09/16 13:38:56;;;;;;;50.00;25.40;;;;;;;;;;5020256;28;20502;-57
2021/09/16 13:41:21;;;;;;;46.75;20.38;;;;;;;;;;5024407;28;20021;-57
2021/09/16 13:43:47;;;;;;;43.90;18.90;;;;;;;;;;5017279;28;20503;-57
2021/09/16 13:46:12;;;;;;;41.95;18.30;;;;;;;;;;5018858;28;20034;-57
2021/09/16 13:48:37;;;;;;;35.95;17.17;;;;;;;;;;5025438;28;20086;-57
2021/09/16 13:51:03;;;;;;;39.13;17.95;;;;;;;;;;5022281;28;20036;-57
2021/09/16 13:53:29;;;;;;;41.05;18.88;;;;;;;;;;5020730;28;20021;-57
2021/09/16 13:55:54;;;;;;;40.40;18.02;;;;;;;;;;5017129;28;20468;-57
2021/09/16 13:58:20;;;;;;;37.45;17.42;;;;;;;;;;5016029;28;20507;-58
2021/09/16 14:00:45;;;;;;;48.95;21.30;;;;;;;;;;5022752;28;20033;-57
2021/09/16 14:03:12;;;;;;;45.45;20.75;;;;;;;;;;5023614;28;20086;-57
2021/09/16 14:05:38;;;;;;;44.72;18.27;;;;;;;;;;5014749;28;20659;-56
2021/09/16 14:08:04;;;;;;;40.70;18.05;;;;;;;;;;5018467;28;20044;-60
2021/09/16 14:10:30;;;;;;;40.85;17.95;;;;;;;;;;5016898;28;20049;-57
2021/09/16 14:12:55;;;;;;;45.17;19.38;;;;;;;;;;5016444;28;20030;-57
2021/09/16 14:15:21;;;;;;;44.60;19.38;;;;;;;;;;5017747;28;20018;-57
2021/09/16 14:17:46;;;;;;;40.13;18.00;;;;;;;;;;5015711;28;20345;-57
2021/09/16 14:20:12;;;;;;;44.55;18.65;;;;;;;;;;5018446;28;20033;-57
2021/09/16 14:22:38;;;;;;;45.40;18.95;;;;;;;;;;5019092;28;20032;-57
2021/09/16 14:25:04;;;;;;;48.72;20.50;;;;;;;;;;5018248;28;20026;-57
2021/09/16 14:27:29;;;;;;;45.95;20.95;;;;;;;;;;5021102;28;20035;-58
2021/09/16 14:29:55;;;;;;;54.08;20.38;;;;;;;;;;5018632;28;20455;-57
2021/09/16 14:32:20;;;;;;;48.67;21.08;;;;;;;;;;5018648;28;20029;-58
2021/09/16 14:34:46;;;;;;;44.35;19.73;;;;;;;;;;5013372;28;20035;-57
2021/09/16 14:37:13;;;;;;;46.53;21.25;;;;;;;;;;5027156;28;20484;-57